Disclaimer   
PNR Super Search
 ♦ 
×
HashTag:
PNR Number:
Train Type:
Train:
From Station:
To Station:
Train Class:
2SSLCCEx3AFC2A1A3E
WL Quota:
DOJ From:
DOJ To:
Blogger:
Traveller:
Predictor:
Prediction:
WLRACConf
Stamper:
Final:
WLRACConfVoidQ-ConfUnStamped
Status:
Reaction:

Search
  Go  
 
Mon Jan 26, 2015 09:53:16 ISTHomeTrainsΣChainsAtlasPNRForumGalleryNewsFAQTripsMembersLoginFeedback
Mon Jan 26, 2015 09:53:16 IST
Post PNRPNR StatusModify Search

Ticket PNR Status Inquiry - PNR: 855-xxxxxxx (PRS)

OLD STATUS

Status Last Updated on: Jul 07 2012 (12:34PM) IST

Date of Journey: Sat Jul 07, 2012   Class: AC 3-tier - 3A   (Total Seats available for this Class/Quota: Avbl >6)
Passenger 1: Waitlist# 8 (Booking Status: W/L 21,RLGN)
Chart PREPARED

Mumbai LTT - Amritsar (Pathankot) Express/11057

Travel Time: 25h 25m    57 halts    Distance: 1205 km    Avg Speed: 47 km/hr
Type: Mail/Express
Zone: CR/Central
Departs @ 15:05 (Avg 37m late)
Platform# 2
SMTWTFS
BPL/Bhopal Junction 
Arrives @ 16:30 +1 night (Avg 3h 39m late)
Platform# 4
SMTWTFS
ASR/Amritsar Junction 

57 halts. 180 intermediate Stations between Bhopal Junction and Amritsar Junction

Show ALL intermediate Stations  Show Old Time-Table

#TrkCodeStation NameX/OArrivesAvgDepartsAvgHaltPFDay#KmSpeedElevZoneAddress
1/==/LTTMumbai Lokmanya Tilak Terminus  -23:45+131-824.6437mCR, Maharashtra
2/==/TNAThane  00:08+200:10+22m72-808.26110mCRThane (West) 400602, Maharashtra
3/==/KYNKalyan Junction  00:30+1200:33+163m42-787.96210mCRKalyan 421301, Maharashtra
4/==/KSRAKasaraXO  01:38+1401:40+202m12-720.525290mCRDist. Thane 421602, Maharashtra
5/==/IGPIgatpuriX  02:15+902:20+165m22-706.263589mCRIgatpuri 422403, Maharashtra
6/==/DVLDevlaliX  03:03+1403:05+162m12-661.269561mCRDist. Nashik 422401, Maharashtra
7/==/NKNasik RoadXO  03:10+1903:15+175m12-655.593563mCRNashik 422101, Maharashtra
8/==/MMRManmad JunctionX  04:02+2204:05+233m22-582.776580mCRManmad 423104, Maharashtra
9/==/CSNChalisgaon Junction  04:58+2005:00+242m--2-515.296352mCRChalisgaon 424101, Maharashtra
10/==/PCPachora Junction  05:28+2905:30+292m--2-470.487264mCRPachora 424201, Maharashtra
11/==/JLJalgaon JunctionX  06:03+3006:05+312m32-422.658213mCRJalgaon 425001, Maharashtra
12/==/BSLBhusaval JunctionX  06:30+3306:45+3215m62-398.551208mCRBhusaval 425201, Maharashtra
13/==/SAVSavdaX  07:03+3307:05+322m--2-383.1105220mCRSavda, Maharashtra
14/==/NBNimbhoraX  07:10+3607:12+372m--2-374.476229mCRJalgaon, Maharashtra
15/==/RVRaverX  07:20+3907:22+392m--2-364.276242mCRJalgaon, Maharashtra
16/==/BAUBurhanpur  07:38+4107:40+412m22-344.087269mCRBurhanpur, Madhya Pradesh
17/==/NPNRNepanagar  07:58+4408:00+452m--2-317.830289mCRState Highway 27, Madhya Pradesh
18/==/KNWKhandwa JunctionX  09:25+509:30+75m22-275.241310mCRKhandwa, Madhya Pradesh
19/==/TLVTalvadiya JunctionXO  09:53+309:55+72m--2-259.499308mWCRJn Point-Mathela/Khaigaon/Surgaon Banjari, Madhya Pradesh
20/==/CAERChhaneraXO  10:13+1310:15+182m--2-229.888283mWCRChhanera, Madhya Pradesh
21/==/KKNKhirkiyaX  10:36+2010:38+222m22-199.173281mWCRSH 15, Madhya Pradesh
22/==/HDHarda  11:04+2111:06+202m--2-167.561289mWCRHarda, Madhya Pradesh
23/==/TBNTimarni  11:20+2011:22+282m--2-153.440308mWCRTimarni, Madhya Pradesh
24/==/BPFBanapura  12:04+1212:06+152m--2-125.251314mWCRBanapura, Madhya Pradesh
25/==/ETItarsi JunctionX  12:45+1212:50+205m12-91.768329mWCRItarsi 461111, Madhya Pradesh
26/==/HBDHoshangabadX  13:06+2513:08+252m--2-73.642308mWCRHoshangabad, Madhya Pradesh
27/==/BNIBudni  13:18+2813:20+312m--2-66.749311mWCRSehore 466445 Madhya pradesh, Madhya Pradesh
28/==/ODGObaidulla GanjO  13:58+3814:00+382m22-35.958448mWCRObaidullaganj Raisen Dist., Madhya Pradesh
29/==/MDDPMandi Dip  14:14+3814:16+382m12-22.457455mWCRMandideep, Madhya Pradesh
30/==/HBJBhopal HabibGanjX  14:33+4014:35+422m12-6.215496mWCRHabibGanj, Madhya Pradesh
31/==/BPLBhopal Junction»  15:00+3315:05+375m220.074497mWCRBhopal, Madhya Pradesh
32/==/SCISanchiXO  15:41+3415:43+342m2244.143428mWCRRaisen, Madhya Pradesh
33/==/BHSVidisha  15:56+3515:58+352m1253.570433mWCRVidisha, Madhya Pradesh
34/==/GLGGulabhGanj  16:16+3416:18+342m1274.592433mWCRVidisha, Madhya Pradesh
35/==/BAQGanj Basoda  16:30+3216:32+322m1292.871415mWCRVidisha, Madhya Pradesh
36/==/MABAMandi BamoraXO  16:56+2916:58+292m12121.325413mWCRState Highway 14, Madhya Pradesh
37/==/BINABina JunctionX  17:40+2117:45+235m32138.658414mWCRJn Pt - KATNI/GUNA/ BPL/JHS, Madhya Pradesh
38/==/DUADhauraX  18:21+3918:23+402m--2173.258407mNCRDhaura Tanda, Madhya Pradesh
39/==/JLNJakhalaun  18:35+3918:37+402m12184.772394mNCRLalitpur(05176-272220), Uttar Pradesh
40/==/LARLalitpur  18:51+4218:53+422m32201.586373mNCRLalitpur, Uttar Pradesh
41/==/TBTTalbahatX  19:21+5119:23+512m32241.459314mNCRKhaniyadhana Station Rd, Madhya Pradesh
42/==/BZYBasai  19:36+5119:38+512m22254.260287mNCR07522289600(Gate ManMob. - 9452701575), Madhya Pradesh
43/==/BABBabinaX  19:50+5319:52+542m12266.340285mNCRBabina, Uttar Pradesh
44/==/JHSJhansi JunctionX  20:30+5420:38+1:038m52291.868259mNCRJhansi, Uttar Pradesh
45/==/DAADatiaX  21:00+1:1021:02+1:102m--2316.863264mNCRDatia, Madhya Pradesh
46/==/SORSonagirX  21:13+1:1121:15+1:122m--2328.471211mNCRDatia, Madhya Pradesh
47/==/DBADabraX  21:31+1:1721:33+1:192m--2347.269207mNCRDabra(District-Gwalior), Madhya Pradesh
48/==/GWLGwalior JunctionX  22:10+1:2522:18+1:238m22389.593214mNCRGwalior, Madhya Pradesh
49/==/MRAMorenaX  22:43+1:4822:45+1:492m22428.170176mNCRMorena, Madhya Pradesh
50/==/DHODholpur JunctionX  23:08+2:0123:10+2:032m12454.954177mNCRDholpur, Rajasthan
51/==/AGCAgra Cantt.X  00:08+2:3800:16+2:418m23507.527174mNCRAgra, Uttar Pradesh
52/==/RKMRaja Ki Mandi  00:25+2:4900:27+2:492m13511.569170mNCRAgra, Uttar Pradesh
53/==/MTJMathura JunctionX  01:10+3:0501:15+3:065m33561.275179mNCRMathura, Uttar Pradesh
54/==/KSVKosi Kalan  01:48+3:2201:50+3:232m13602.744189mNCRKosi Kalan, Uttar Pradesh
55/==/PWLPalwal  02:48+3:1002:50+3:102m--3645.171200mNRPalwal, Haryana
56/==/BVHBallabgarh  03:08+3:2203:10+3:222m33666.344203mNRFaridabad, Haryana
57/==/FDBFaridabad  03:21+3:2603:23+3:262m23674.452206mNRold Faridabad, Haryana
58/==/NZMDelhi Hazrat NizamuddinX  03:47+3:3403:49+3:352m33695.217209mNRNew Delhi 110013, Delhi NCT
59/==/NDLSNew Delhi  04:15+3:3504:30+3:3815m23702.515215mNRNew Delhi 110002, Delhi NCT
60/==/SZMDelhi Sabzi Mandi  04:46+3:5204:48+3:522m--3706.749220mNRGulabi Bagh, Delhi NCT
61/==/BHDBadliXO  05:01+3:4605:03+3:472m--3717.351217mNRRohini, Delhi NCT
62/==/NURNarelaX  05:18+3:5005:20+3:532m--3729.937222mNRNarela, Delhi NCT
63/==/SNPSonipatX  05:48+3:4105:50+3:442m--3747.060225mNRSonipat, Haryana
64/==/GNUGanaur  06:06+3:4106:08+3:412m--3762.957222mNRGanaur, Haryana
65/==/SMKSamalkha  06:21+3:4206:23+3:462m--3775.254229mNRSamalkha, Haryana
66/==/PNPPanipat Junction  06:42+3:5006:44+3:502m33792.264235mNRPanipat, Haryana
67/==/GRAGharaunda  07:00+3:3207:02+3:342m--3809.166244mNRGharaunda, Haryana
68/==/KUNKarnal  07:18+3:4607:20+3:462m23826.652253mNRKarnal, Haryana
69/==/TRRTaraori  07:34+3:4507:35+3:471m--3838.726255mNRTaraori, Haryana
70/==/NLKRNilokheriXO  07:44+3:4307:45+3:461m--3842.634254mNRNilokheri, Haryana
71/==/KKDEKurukshetra Junction  08:15+3:3708:17+3:372m13859.778260mNRKurukshetra, Haryana
72/==/SHDMShahbad MarkandaX  08:34+3:1708:36+3:182m23881.927267mNRShahabad Markanda, Haryana
73/==/UMBAmbala Cantt. JunctionX09:20+3:2809:40+3:2820m63901.838278mNRAmbala 133001, Haryana
74/==/UBCAmbala CityX  09:52+3:2509:54+3:262m33909.382273mNRNH-1, Haryana
75/==/RPJRajpura Junction  10:09+3:3810:11+3:392m13929.855272mNRNH-1., Punjab
76|--|PTAPatialaX  10:38+3:4110:40+3:452m13954.752256mNRPatiala, Punjab
77|--|NBANabha  11:10+3:3411:12+3:352m13980.549250mNRNabha, Punjab
78|--|DUIDhuri Junction  11:45+3:3511:50+3:365m--31007.472248mNRDhuri, Punjab
79|--|METMalerkotlaX  12:04+3:4012:06+3:412m131024.228248mNRMalerkotla., Punjab
80|--|AHHAhmadgarh  12:48+3:2112:50+3:222m131044.144256mNRAhmedgarh, Punjab
81|--|LDHLudhiana JunctionX  13:25+3:1713:35+3:2310m331069.534246mNRLudhiana 141001, Punjab
82/==/PHRPhillaur JunctionX  13:58+3:0914:00+3:092m231082.664246mNRPhillaur, Punjab
83/==/GRYGorayaX  14:12+3:1814:14+3:182m231095.354240mNRGoraya, Punjab
84/==/PGWPhagwara JunctionX  14:25+3:2314:27+3:232m231105.270245mNRPhagwara, Punjab
85/==/JRCJalandhar Cantt. JunctionX  14:41+3:2714:43+3:272m131121.524239mNRNear Rama Mandi, Punjab
86/==/JUCJalandhar City Junction  14:55+3:3415:00+3:385m131126.356239mNRJalandhar 144001, Punjab
87/==/BEASBeas JunctionX  15:39+3:2415:41+3:242m131162.480238mNRBeas, Punjab
88/==/JNLJandialaX  15:59+3:1916:01+3:192m131186.340238mNRJandiala, Punjab
89/==/ASRAmritsar Junction•  16:30+3:39-431205.4-233mNRAmritsar 143002, Punjab
Scroll to Top
Scroll to Bottom


Go to Mobile site